createdAt,value
2018-11-05T00:00:22.503Z,49.77
2018-11-05T00:02:52.346Z,55.67
2018-11-05T00:05:21.926Z,50.03
2018-11-05T00:07:51.022Z,50.53
2018-11-05T00:10:19.884Z,51.23
2018-11-05T00:12:48.779Z,54.47
2018-11-05T00:15:17.629Z,52.10
2018-11-05T00:17:46.454Z,51.07
2018-11-05T00:20:15.274Z,51.87
2018-11-05T00:22:44.378Z,51.60
2018-11-05T00:25:13.808Z,56.63
2018-11-05T00:27:42.950Z,55.23
2018-11-05T00:30:13.023Z,56.83
2018-11-05T00:32:42.169Z,53.80
2018-11-05T00:35:11.150Z,55.60
2018-11-05T00:37:40.240Z,55.13
2018-11-05T00:40:15.245Z,55.03
2018-11-05T00:42:45.105Z,56.93
2018-11-05T00:45:14.879Z,63.47
2018-11-05T00:47:44.264Z,59.10
2018-11-05T00:50:14.569Z,62.10
2018-11-05T00:52:43.387Z,62.00
2018-11-05T00:55:12.848Z,62.20
2018-11-05T00:57:41.701Z,64.47
2018-11-05T01:00:12.779Z,59.43
2018-11-05T01:02:42.193Z,66.97
2018-11-05T01:05:12.410Z,61.80
2018-11-05T01:07:41.902Z,62.30
2018-11-05T01:10:12.006Z,72.30
2018-11-05T01:12:40.861Z,64.70
2018-11-05T01:15:13.469Z,68.27
2018-11-05T01:17:42.286Z,60.07
2018-11-05T01:20:12.189Z,59.80
2018-11-05T01:22:41.190Z,64.87
2018-11-05T01:25:10.018Z,61.27
2018-11-05T01:27:38.843Z,60.93
2018-11-05T01:30:10.283Z,73.15
2018-11-05T01:32:39.082Z,69.63
2018-11-05T01:35:10.170Z,67.47
2018-11-05T01:37:38.992Z,62.33
2018-11-05T01:40:11.866Z,71.90
2018-11-05T01:42:40.780Z,74.80
2018-11-05T01:45:10.848Z,66.93
2018-11-05T01:47:40.650Z,65.60
2018-11-05T01:50:11.831Z,64.67
2018-11-05T01:52:43.932Z,63.93
2018-11-05T01:55:12.770Z,71.10
2018-11-05T01:57:41.966Z,71.57
2018-11-05T02:00:14.184Z,75.10
2018-11-05T02:02:43.327Z,79.07
2018-11-05T02:05:12.262Z,71.73
2018-11-05T02:07:42.336Z,68.03
2018-11-05T02:10:13.658Z,70.50
2018-11-05T02:12:42.668Z,73.90
2018-11-05T02:15:11.961Z,68.67
2018-11-05T02:17:42.200Z,77.43
2018-11-05T02:20:11.498Z,73.17
2018-11-05T02:22:40.786Z,71.20
2018-11-05T02:25:10.830Z,77.90
2018-11-05T02:27:39.914Z,72.13
2018-11-05T02:30:12.753Z,75.80
2018-11-05T02:32:41.590Z,72.17
2018-11-05T02:35:12.221Z,66.43
2018-11-05T02:37:41.868Z,67.00
2018-11-05T02:40:13.683Z,72.00
2018-11-05T02:42:43.131Z,70.13
2018-11-05T02:45:13.313Z,70.43
2018-11-05T02:47:42.634Z,73.00
2018-11-05T02:50:12.853Z,70.73
2018-11-05T02:52:42.650Z,70.03
2018-11-05T02:55:11.455Z,67.27
2018-11-05T02:57:41.460Z,74.07
2018-11-05T03:00:14.338Z,73.97
2018-11-05T03:02:43.447Z,62.27
2018-11-05T03:05:13.800Z,62.93
2018-11-05T03:07:43.052Z,67.23
2018-11-05T03:10:12.471Z,65.40
2018-11-05T03:12:41.973Z,64.37
2018-11-05T03:15:13.388Z,68.40
2018-11-05T03:17:42.276Z,69.33
2018-11-05T03:20:12.433Z,64.10
2018-11-05T03:22:41.831Z,70.27
2018-11-05T03:25:10.664Z,70.43
2018-11-05T03:27:39.915Z,68.60
2018-11-05T03:30:13.485Z,64.77
2018-11-05T03:32:42.396Z,67.40
2018-11-05T03:35:12.247Z,76.60
2018-11-05T03:37:42.491Z,69.33
2018-11-05T03:40:12.052Z,64.37
2018-11-05T03:42:41.762Z,68.47
2018-11-05T03:45:12.500Z,62.80
2018-11-05T03:47:41.320Z,71.33
2018-11-05T03:50:13.210Z,60.37
2018-11-05T03:52:42.331Z,67.03
2018-11-05T03:55:11.203Z,61.90
2018-11-05T03:57:40.310Z,65.97
2018-11-05T04:00:11.268Z,67.73
2018-11-05T04:02:40.202Z,67.03
2018-11-05T04:05:09.580Z,60.27
2018-11-05T04:07:38.992Z,66.30
2018-11-05T04:10:09.622Z,61.23
2018-11-05T04:12:38.486Z,62.70
2018-11-05T04:15:08.984Z,64.10
2018-11-05T04:17:37.786Z,55.13
2018-11-05T04:20:09.562Z,62.93
2018-11-05T04:22:38.458Z,63.90
2018-11-05T04:25:08.523Z,58.70
2018-11-05T04:27:37.415Z,57.60
2018-11-05T04:30:10.251Z,57.08
2018-11-05T04:32:39.254Z,59.63
2018-11-05T04:35:09.480Z,57.93
2018-11-05T04:37:38.306Z,58.80
2018-11-05T04:40:09.066Z,56.10
2018-11-05T04:42:37.933Z,59.33
2018-11-05T04:45:10.364Z,54.70
2018-11-05T04:47:39.215Z,54.53
2018-11-05T04:50:10.405Z,54.97
2018-11-05T04:52:40.719Z,59.43
2018-11-05T04:55:09.565Z,59.10
2018-11-05T04:57:38.495Z,55.40
2018-11-05T05:00:13.289Z,58.95
2018-11-05T05:02:42.530Z,53.63
2018-11-05T05:05:12.540Z,60.97
2018-11-05T05:07:41.439Z,57.53
2018-11-05T05:10:10.630Z,58.27
2018-11-05T05:12:40.426Z,53.73
2018-11-05T05:15:09.835Z,56.07
2018-11-05T05:17:39.079Z,57.50
2018-11-05T05:20:11.566Z,59.03
2018-11-05T05:22:40.497Z,56.63
2018-11-05T05:25:09.255Z,60.37
2018-11-05T05:27:38.072Z,56.23
2018-11-05T05:30:14.271Z,56.33
2018-11-05T05:32:43.352Z,61.87
2018-11-05T05:35:12.244Z,60.08
2018-11-05T05:37:41.750Z,62.43
2018-11-05T05:40:10.847Z,56.73
2018-11-05T05:42:40.446Z,61.53
2018-11-05T05:45:10.379Z,59.83
2018-11-05T05:47:39.258Z,61.77
2018-11-05T05:50:12.622Z,61.98
2018-11-05T05:52:43.401Z,60.87
2018-11-05T05:55:12.213Z,59.13
2018-11-05T05:57:41.087Z,61.07
2018-11-05T06:00:12.596Z,58.67
2018-11-05T06:02:41.463Z,58.67
2018-11-05T06:05:11.731Z,57.80
2018-11-05T06:07:41.139Z,61.33
2018-11-05T06:10:11.328Z,51.93
2018-11-05T06:12:40.245Z,63.53
2018-11-05T06:15:11.570Z,55.80
2018-11-05T06:17:40.687Z,57.60
2018-11-05T06:20:14.191Z,55.17
2018-11-05T06:22:44.023Z,57.83
2018-11-05T06:25:12.839Z,56.50
2018-11-05T06:27:41.755Z,54.40
2018-11-05T06:30:17.135Z,54.53
2018-11-05T06:32:46.848Z,59.33
2018-11-05T06:35:15.711Z,51.30
2018-11-05T06:37:44.507Z,59.03
2018-11-05T06:40:16.056Z,53.23
2018-11-05T06:42:45.207Z,50.90
2018-11-05T06:45:15.309Z,56.35
2018-11-05T06:47:44.991Z,56.03
2018-11-05T06:50:16.667Z,55.90
2018-11-05T06:52:46.118Z,57.47
2018-11-05T06:55:15.463Z,52.80
2018-11-05T06:57:44.362Z,56.73
2018-11-05T07:00:20.106Z,57.78
2018-11-05T07:02:48.933Z,53.57
2018-11-05T07:05:17.837Z,50.67
2018-11-05T07:07:46.690Z,51.93
2018-11-05T07:10:16.294Z,54.97
2018-11-05T07:12:45.415Z,51.33
2018-11-05T07:15:15.333Z,54.20
2018-11-05T07:17:45.202Z,50.50
2018-11-05T07:20:15.556Z,56.53
2018-11-05T07:22:45.565Z,50.77
2018-11-05T07:25:15.062Z,53.10
2018-11-05T07:27:44.340Z,49.83
2018-11-05T07:30:16.224Z,55.20
2018-11-05T07:32:53.011Z,51.17
2018-11-05T07:35:21.847Z,54.23
2018-11-05T07:37:50.713Z,51.63
2018-11-05T07:40:20.181Z,50.90
2018-11-05T07:42:49.485Z,45.57
2018-11-05T07:45:22.463Z,50.17
2018-11-05T07:47:51.321Z,53.60
2018-11-05T07:50:21.302Z,55.23
2018-11-05T07:52:51.182Z,50.00
2018-11-05T07:55:20.325Z,50.63
2018-11-05T07:57:49.986Z,53.33
2018-11-05T08:00:24.588Z,52.27
2018-11-05T08:02:54.905Z,51.93
2018-11-05T08:05:24.245Z,54.03
2018-11-05T08:07:53.359Z,49.40
2018-11-05T08:10:22.192Z,47.33
2018-11-05T08:12:51.015Z,53.40
2018-11-05T08:15:21.147Z,52.53
2018-11-05T08:17:50.884Z,53.50
2018-11-05T08:20:19.858Z,53.17
2018-11-05T08:22:48.932Z,53.43
2018-11-05T08:25:18.141Z,50.83
2018-11-05T08:27:46.991Z,52.00
2018-11-05T08:30:20.127Z,49.47
2018-11-05T08:32:49.027Z,50.83
2018-11-05T08:35:17.890Z,50.17
2018-11-05T08:37:47.421Z,50.77
2018-11-05T08:40:18.988Z,53.20
2018-11-05T08:42:48.946Z,49.13
2018-11-05T08:45:18.887Z,49.67
2018-11-05T08:47:47.736Z,48.03
2018-11-05T08:50:17.985Z,49.07
2018-11-05T08:52:46.778Z,52.33
2018-11-05T08:55:18.314Z,50.27
2018-11-05T08:57:47.262Z,50.00
2018-11-05T09:00:23.097Z,49.53
2018-11-05T09:02:52.510Z,54.07
2018-11-05T09:05:21.488Z,48.10
2018-11-05T09:07:51.203Z,48.10
2018-11-05T09:10:20.201Z,46.10
2018-11-05T09:12:48.898Z,50.67
2018-11-05T09:15:19.819Z,46.80
2018-11-05T09:17:49.015Z,52.50
2018-11-05T09:20:18.872Z,49.47
2018-11-05T09:22:48.989Z,52.83
2018-11-05T09:25:18.041Z,45.57
2018-11-05T09:27:46.961Z,48.43
2018-11-05T09:30:18.392Z,50.10
2018-11-05T09:32:47.580Z,49.83
2018-11-05T09:35:16.442Z,46.60
2018-11-05T09:37:45.471Z,51.33
2018-11-05T09:40:17.657Z,49.10
2018-11-05T09:42:47.132Z,49.60
2018-11-05T09:45:18.725Z,50.40
2018-11-05T09:47:47.885Z,51.23
2018-11-05T09:50:17.330Z,45.97
2018-11-05T09:52:46.209Z,48.97
2018-11-05T09:55:15.584Z,50.80
2018-11-05T09:57:44.925Z,54.23
2018-11-05T10:00:17.336Z,51.33
2018-11-05T10:02:51.740Z,52.90
2018-11-05T10:05:20.676Z,51.73
2018-11-05T10:07:49.362Z,49.80
2018-11-05T10:10:18.669Z,53.17
2018-11-05T10:12:47.422Z,51.40
2018-11-05T10:15:17.259Z,47.13
2018-11-05T10:17:46.157Z,50.27
2018-11-05T10:20:20.087Z,54.03
2018-11-05T10:22:49.022Z,54.80
2018-11-05T10:25:18.187Z,46.63
2018-11-05T10:27:47.457Z,51.23
2018-11-05T10:30:25.391Z,47.67
2018-11-05T10:32:54.295Z,48.70
2018-11-05T10:35:56.955Z,49.47
2018-11-05T10:38:26.168Z,47.77
2018-11-05T10:40:55.014Z,46.10
2018-11-05T10:43:24.520Z,46.57
2018-11-05T10:45:53.327Z,43.93
2018-11-05T10:48:22.163Z,46.30
2018-11-05T10:50:51.008Z,43.30
2018-11-05T10:53:19.898Z,43.30
2018-11-05T10:55:48.734Z,45.50
2018-11-05T10:58:18.065Z,53.33
2018-11-05T11:00:52.310Z,48.67
2018-11-05T11:03:21.637Z,46.33
2018-11-05T11:05:50.464Z,43.63
2018-11-05T11:08:19.300Z,46.87
2018-11-05T11:10:48.162Z,43.13
2018-11-05T11:13:17.017Z,45.97
2018-11-05T11:15:45.902Z,48.50
2018-11-05T11:18:14.800Z,44.30
2018-11-05T11:20:43.659Z,42.30
2018-11-05T11:23:12.484Z,40.10
2018-11-05T11:25:41.454Z,44.10
2018-11-05T11:28:10.287Z,48.00
2018-11-05T11:30:39.106Z,44.13
2018-11-05T11:33:07.980Z,37.73
2018-11-05T11:35:36.799Z,43.50
2018-11-05T11:38:06.080Z,41.03
2018-11-05T11:40:34.932Z,39.33
2018-11-05T11:43:03.839Z,40.63
2018-11-05T11:45:32.648Z,45.37
2018-11-05T11:48:01.680Z,42.97
2018-11-05T11:50:30.546Z,44.93
2018-11-05T11:52:59.460Z,40.30
2018-11-05T11:55:28.282Z,44.03
2018-11-05T11:57:57.159Z,43.80
2018-11-05T12:00:26.599Z,48.98
2018-11-05T12:02:55.420Z,41.47
2018-11-05T12:05:24.344Z,42.73
2018-11-05T12:07:53.150Z,43.90
2018-11-05T12:10:23.702Z,45.30
2018-11-05T12:12:52.558Z,46.07
2018-11-05T12:15:22.234Z,41.37
2018-11-05T12:17:52.018Z,42.37
2018-11-05T12:20:22.057Z,43.65
2018-11-05T12:22:51.422Z,44.33
2018-11-05T12:25:20.364Z,45.87
2018-11-05T12:27:49.150Z,40.37
2018-11-05T12:30:19.639Z,51.05
2018-11-05T12:32:49.855Z,44.60
2018-11-05T12:35:18.730Z,45.27
2018-11-05T12:37:48.659Z,42.37
2018-11-05T12:40:18.715Z,43.15
2018-11-05T12:42:48.596Z,40.43
2018-11-05T12:45:17.462Z,39.83
2018-11-05T12:47:46.378Z,44.47
2018-11-05T12:50:20.027Z,48.47
2018-11-05T12:52:49.927Z,42.30
2018-11-05T12:55:18.792Z,40.63
2018-11-05T12:57:48.023Z,42.77
2018-11-05T13:00:19.439Z,42.17
2018-11-05T13:02:54.716Z,41.00
2018-11-05T13:05:24.939Z,42.43
2018-11-05T13:07:53.939Z,42.27
2018-11-05T13:10:23.032Z,41.03
2018-11-05T13:12:52.382Z,46.87
2018-11-05T13:15:21.296Z,38.83
2018-11-05T13:17:50.114Z,45.83
2018-11-05T13:20:20.198Z,40.93
2018-11-05T13:22:49.143Z,47.37
2018-11-05T13:25:17.905Z,42.57
2018-11-05T13:27:48.715Z,39.10
2018-11-05T13:30:17.844Z,46.50
2018-11-05T13:32:46.905Z,40.70
2018-11-05T13:35:17.318Z,44.67
2018-11-05T13:37:46.408Z,41.50
2018-11-05T13:40:16.431Z,40.27
2018-11-05T13:42:45.738Z,43.67
2018-11-05T13:45:15.148Z,41.67
2018-11-05T13:47:44.542Z,40.70
2018-11-05T13:50:13.474Z,38.43
2018-11-05T13:52:42.204Z,43.13
2018-11-05T13:55:15.008Z,40.13
2018-11-05T13:57:45.151Z,39.50
2018-11-05T14:00:16.277Z,42.03
2018-11-05T14:02:45.217Z,37.90
2018-11-05T14:05:14.763Z,35.37
2018-11-05T14:07:43.683Z,42.37
2018-11-05T14:10:18.723Z,37.37
2018-11-05T14:12:48.246Z,41.17
2018-11-05T14:15:17.057Z,40.97
2018-11-05T14:17:46.242Z,35.17
2018-11-05T14:20:16.234Z,36.07
2018-11-05T14:22:45.105Z,35.43
2018-11-05T14:25:15.280Z,37.88
2018-11-05T14:27:46.492Z,38.97
2018-11-05T14:30:15.300Z,37.90
2018-11-05T14:32:45.262Z,39.27
2018-11-05T14:35:15.191Z,35.43
2018-11-05T14:37:44.052Z,45.90
2018-11-05T14:40:14.313Z,40.83
2018-11-05T14:42:43.176Z,43.47
2018-11-05T14:45:16.091Z,37.23
2018-11-05T14:47:45.783Z,42.90
2018-11-05T14:50:16.707Z,42.95
2018-11-05T14:52:45.523Z,37.23
2018-11-05T14:55:16.799Z,47.47
2018-11-05T14:57:46.700Z,44.30
2018-11-05T15:00:18.175Z,40.10
2018-11-05T15:02:47.671Z,43.30
2018-11-05T15:05:17.222Z,38.63
2018-11-05T15:07:46.747Z,36.23
2018-11-05T15:10:19.026Z,35.17
2018-11-05T15:12:48.517Z,36.37
2018-11-05T15:15:17.916Z,43.07
2018-11-05T15:17:47.119Z,36.20
2018-11-05T15:20:17.598Z,36.33
2018-11-05T15:22:46.172Z,36.70
2018-11-05T15:25:15.335Z,34.35
2018-11-05T15:27:44.202Z,34.60
2018-11-05T15:30:15.895Z,33.60
2018-11-05T15:32:44.821Z,36.17
2018-11-05T15:35:14.209Z,33.90
2018-11-05T15:37:43.468Z,30.97
2018-11-05T15:40:14.363Z,38.27
2018-11-05T15:42:43.207Z,33.87
2018-11-05T15:45:13.239Z,33.92
2018-11-05T15:47:42.550Z,32.40
2018-11-05T15:50:14.315Z,32.33
2018-11-05T15:52:43.406Z,35.90
2018-11-05T15:55:12.354Z,34.83
2018-11-05T15:57:41.523Z,31.03
2018-11-05T16:00:16.758Z,33.17
2018-11-05T16:02:47.551Z,33.87
2018-11-05T16:05:16.778Z,35.50
2018-11-05T16:07:45.919Z,33.30
2018-11-05T16:10:14.947Z,33.90
2018-11-05T16:12:43.770Z,31.30
2018-11-05T16:15:13.162Z,31.10
2018-11-05T16:17:42.310Z,37.23
2018-11-05T16:20:13.647Z,33.63
2018-11-05T16:22:42.540Z,33.97
2018-11-05T16:25:11.417Z,32.33
2018-11-05T16:27:40.279Z,39.27
2018-11-05T16:30:11.579Z,37.37
2018-11-05T16:32:40.697Z,35.70
2018-11-05T16:35:09.651Z,31.60
2018-11-05T16:37:38.378Z,35.80
2018-11-05T16:40:11.106Z,33.38
2018-11-05T16:42:40.230Z,35.20
2018-11-05T16:45:09.861Z,33.50
2018-11-05T16:47:39.213Z,37.77
2018-11-05T16:50:27.282Z,35.78
2018-11-05T16:52:56.147Z,34.97
2018-11-05T16:55:25.275Z,32.83
2018-11-05T16:57:54.137Z,39.23
2018-11-05T17:00:23.417Z,36.38
2018-11-05T17:02:52.287Z,34.53
2018-11-05T17:05:21.361Z,34.40
2018-11-05T17:07:50.200Z,35.40
2018-11-05T17:10:19.026Z,39.42
2018-11-05T17:12:47.862Z,37.47
2018-11-05T17:15:17.224Z,37.77
2018-11-05T17:17:46.147Z,39.23
2018-11-05T17:20:16.340Z,37.60
2018-11-05T17:22:45.646Z,34.70
2018-11-05T17:25:14.934Z,35.47
2018-11-05T17:27:44.419Z,39.33
2018-11-05T17:30:17.271Z,36.53
2018-11-05T17:32:46.131Z,35.03
2018-11-05T17:35:15.514Z,34.03
2018-11-05T17:37:44.897Z,37.47
2018-11-05T17:40:16.144Z,39.35
2018-11-05T17:42:44.887Z,36.53
2018-11-05T17:45:15.326Z,41.55
2018-11-05T17:47:44.474Z,38.30
2018-11-05T17:50:15.145Z,39.83
2018-11-05T17:52:44.306Z,40.53
2018-11-05T17:55:14.234Z,36.60
2018-11-05T17:57:44.347Z,36.53
2018-11-05T18:00:15.390Z,36.63
2018-11-05T18:02:44.242Z,35.27
2018-11-05T18:05:13.115Z,41.97
2018-11-05T18:07:43.486Z,38.57
2018-11-05T18:10:12.354Z,35.20
2018-11-05T18:12:41.287Z,37.37
2018-11-05T18:15:11.510Z,35.20
2018-11-05T18:17:40.891Z,38.47
2018-11-05T18:20:11.415Z,36.60
2018-11-05T18:22:40.414Z,38.97
2018-11-05T18:25:11.732Z,37.57
2018-11-05T18:27:40.580Z,39.57
2018-11-05T18:30:10.547Z,34.13
2018-11-05T18:32:39.381Z,33.97
2018-11-05T18:35:10.470Z,37.90
2018-11-05T18:37:39.423Z,38.83
2018-11-05T18:40:11.272Z,38.73
2018-11-05T18:42:40.558Z,35.33
2018-11-05T18:45:09.631Z,35.63
2018-11-05T18:47:39.458Z,37.80
2018-11-05T18:50:11.557Z,42.15
2018-11-05T18:52:40.520Z,42.37
2018-11-05T18:55:11.155Z,41.40
2018-11-05T18:57:40.275Z,40.70
2018-11-05T19:00:23.074Z,42.23
2018-11-05T19:02:52.786Z,40.87
2018-11-05T19:05:22.487Z,37.60
2018-11-05T19:07:51.715Z,42.00
2018-11-05T19:10:20.710Z,36.70
2018-11-05T19:12:50.284Z,35.10
2018-11-05T19:15:19.263Z,36.68
2018-11-05T19:17:48.724Z,35.60
2018-11-05T19:20:17.888Z,32.40
2018-11-05T19:22:47.058Z,32.73
2018-11-05T19:25:16.506Z,34.10
2018-11-05T19:27:45.422Z,30.83
2018-11-05T19:30:18.554Z,32.93
2018-11-05T19:32:47.354Z,35.07
2018-11-05T19:35:16.224Z,33.67
2018-11-05T19:37:45.110Z,33.67
2018-11-05T19:40:14.803Z,34.03
2018-11-05T19:42:44.606Z,28.90
2018-11-05T19:45:15.650Z,30.10
2018-11-05T19:47:44.470Z,29.20
2018-11-05T19:50:15.431Z,28.97
2018-11-05T19:52:45.547Z,32.07
2018-11-05T19:55:15.566Z,30.45
2018-11-05T19:57:45.279Z,27.17
2018-11-05T20:00:18.959Z,30.85
2018-11-05T20:02:48.506Z,27.93
2018-11-05T20:05:17.735Z,27.70
2018-11-05T20:07:47.275Z,29.33
2018-11-05T20:10:16.436Z,29.90
2018-11-05T20:12:45.887Z,29.30
2018-11-05T20:15:14.998Z,28.77
2018-11-05T20:17:44.700Z,28.93
2018-11-05T20:20:14.924Z,29.20
2018-11-05T20:22:43.987Z,34.03
2018-11-05T20:25:12.898Z,25.33
2018-11-05T20:27:42.211Z,26.60
2018-11-05T20:30:15.484Z,29.03
2018-11-05T20:32:45.560Z,27.00
2018-11-05T20:35:14.201Z,26.23
2018-11-05T20:37:43.020Z,25.37
2018-11-05T20:40:13.455Z,26.60
2018-11-05T20:42:43.358Z,24.73
2018-11-05T20:45:12.251Z,26.67
2018-11-05T20:47:41.163Z,25.70
2018-11-05T20:50:10.843Z,27.57
2018-11-05T20:52:40.435Z,27.03
2018-11-05T20:55:10.471Z,25.17
2018-11-05T20:57:39.664Z,27.30
2018-11-05T21:00:11.012Z,29.80
2018-11-05T21:02:40.506Z,26.07
2018-11-05T21:05:09.348Z,27.07
2018-11-05T21:07:38.596Z,26.77
2018-11-05T21:10:10.774Z,27.95
2018-11-05T21:12:41.158Z,27.40
2018-11-05T21:15:14.802Z,26.57
2018-11-05T21:17:44.481Z,24.70
2018-11-05T21:20:13.714Z,25.80
2018-11-05T21:22:42.704Z,26.00
2018-11-05T21:25:11.469Z,27.20
2018-11-05T21:27:41.099Z,27.73
2018-11-05T21:30:13.087Z,26.13
2018-11-05T21:32:41.992Z,27.87
2018-11-05T21:35:13.070Z,28.00
2018-11-05T21:37:42.234Z,25.60
2018-11-05T21:40:12.216Z,25.90
2018-11-05T21:42:41.006Z,27.93
2018-11-05T21:45:11.342Z,24.40
2018-11-05T21:47:40.610Z,25.10
2018-11-05T21:50:11.770Z,24.57
2018-11-05T21:52:41.558Z,22.57
2018-11-05T21:55:10.458Z,24.97
2018-11-05T21:57:41.732Z,24.03
2018-11-05T22:00:20.144Z,23.90
2018-11-05T22:02:54.403Z,22.50
2018-11-05T22:05:23.519Z,25.00
2018-11-05T22:07:52.347Z,21.73
2018-11-05T22:10:21.276Z,23.70
2018-11-05T22:12:50.954Z,23.83
2018-11-05T22:15:20.031Z,23.57
2018-11-05T22:17:48.860Z,22.13
2018-11-05T22:20:17.720Z,22.17
2018-11-05T22:22:46.561Z,22.20
2018-11-05T22:25:15.389Z,21.77
2018-11-05T22:27:44.247Z,21.53
2018-11-05T22:30:13.381Z,21.43
2018-11-05T22:32:42.229Z,20.03
2018-11-05T22:35:11.356Z,21.20
2018-11-05T22:37:40.205Z,21.47
2018-11-05T22:40:11.519Z,20.10
2018-11-05T22:42:40.359Z,21.13
2018-11-05T22:45:10.247Z,20.47
2018-11-05T22:47:39.069Z,18.67
2018-11-05T22:50:09.373Z,18.97
2018-11-05T22:52:38.650Z,20.10
2018-11-05T22:55:08.058Z,19.13
2018-11-05T22:57:37.020Z,19.50
2018-11-05T23:00:17.752Z,20.77
2018-11-05T23:02:51.894Z,18.57
2018-11-05T23:05:21.088Z,18.87
2018-11-05T23:07:50.377Z,20.33
2018-11-05T23:10:19.240Z,17.43
2018-11-05T23:12:48.088Z,17.97
2018-11-05T23:15:17.412Z,16.70
2018-11-05T23:17:46.667Z,19.13
2018-11-05T23:20:15.496Z,19.48
2018-11-05T23:22:44.543Z,18.33
2018-11-05T23:25:13.963Z,17.73
2018-11-05T23:27:42.766Z,18.20
2018-11-05T23:30:13.167Z,17.93
2018-11-05T23:32:42.274Z,16.80
2018-11-05T23:35:11.682Z,16.70
2018-11-05T23:37:41.297Z,20.57
2018-11-05T23:40:10.617Z,17.60
2018-11-05T23:42:39.986Z,17.47
2018-11-05T23:45:11.983Z,18.03
2018-11-05T23:47:40.986Z,17.20
2018-11-05T23:50:10.240Z,17.20
2018-11-05T23:52:39.108Z,17.83
2018-11-05T23:55:09.468Z,15.25
2018-11-05T23:57:38.297Z,17.07
